マドリード/バラハス の空港の天気 - METARとTAF

マドリード・バラハス国際空港 ( LEMD / MAD ) - スペイン マドリード
飛行場実況気象(Metar)
観測時間10/15 19:00 CEST (10/15 17:00 UTC)
風向・風速南西 4m/s
視程10km以上
天気現象
なし
気温16℃
湿度42%
気圧1020hPa
METARLEMD 151700Z 22007KT 200V290 CAVOK 16/03 Q1020 NOSIG
過去の天気等 Google飛行場航空写真 Wunderground天気予報

過去48時間のMETAR

飛行場予報(TAF)
発表時間: 10/15 13:00 CEST (10/15 11:00 UTC)
予報対象時間: 15日14時 CEST ~ 16日20時 CEST
風向・風速不定 3m/s
視程10km以上
なし
15日14時 CEST ~ 15日20時 CEST に 確率 30% で一時的に
風向・風速南西 5m/s
16日13時 CEST ~ 16日20時 CEST に 確率 30% で一時的に
風向・風速南西 5m/s
TAF LEMD 151100Z 1512/1618 VRB05KT CAVOK TX19/1515Z TN06/1606Z
PROB30 TEMPO 1512/1518 23010KT
PROB30 TEMPO 1611/1618 22010KT